Map

Track Data

SID SEASON NUMBER BASIN SUBBASIN NAME ISO_TIME NATURE LAT LON WMO_WIND WMO_PRES WMO_AGENCY TRACK_TYPE DIST2LAND LANDFALL IFLAG USA_AGENCY USA_ATCF_ID USA_LAT USA_LON USA_RECORD USA_STATUS USA_WIND USA_PRES USA_SSHS USA_R34_NE USA_R34_SE USA_R34_SW USA_R34_NW USA_R50_NE USA_R50_SE USA_R50_SW USA_R50_NW USA_R64_NE USA_R64_SE USA_R64_SW USA_R64_NW USA_POCI USA_ROCI USA_RMW USA_EYE TOKYO_LAT TOKYO_LON TOKYO_GRADE TOKYO_WIND TOKYO_PRES TOKYO_R50_DIR TOKYO_R50_LONG TOKYO_R50_SHORT TOKYO_R30_DIR TOKYO_R30_LONG TOKYO_R30_SHORT TOKYO_LAND CMA_LAT CMA_LON CMA_CAT CMA_WIND CMA_PRES HKO_LAT HKO_LON HKO_CAT HKO_WIND HKO_PRES NEWDELHI_LAT NEWDELHI_LON NEWDELHI_GRADE NEWDELHI_WIND NEWDELHI_PRES NEWDELHI_CI NEWDELHI_DP NEWDELHI_POCI REUNION_LAT REUNION_LON REUNION_TYPE REUNION_WIND REUNION_PRES REUNION_TNUM REUNION_CI REUNION_RMW REUNION_R34_NE REUNION_R34_SE REUNION_R34_SW REUNION_R34_NW REUNION_R50_NE REUNION_R50_SE REUNION_R50_SW REUNION_R50_NW REUNION_R64_NE REUNION_R64_SE REUNION_R64_SW REUNION_R64_NW BOM_LAT BOM_LON BOM_TYPE BOM_WIND BOM_PRES BOM_TNUM BOM_CI BOM_RMW BOM_R34_NE BOM_R34_SE BOM_R34_SW BOM_R34_NW BOM_R50_NE BOM_R50_SE BOM_R50_SW BOM_R50_NW BOM_R64_NE BOM_R64_SE BOM_R64_SW BOM_R64_NW BOM_ROCI BOM_POCI BOM_EYE BOM_POS_METHOD BOM_PRES_METHOD NADI_LAT NADI_LON NADI_CAT NADI_WIND NADI_PRES WELLINGTON_LAT WELLINGTON_LON WELLINGTON_WIND WELLINGTON_PRES DS824_LAT DS824_LON DS824_STAGE DS824_WIND DS824_PRES TD9636_LAT TD9636_LON TD9636_STAGE TD9636_WIND TD9636_PRES TD9635_LAT TD9635_LON TD9635_WIND TD9635_PRES TD9635_ROCI NEUMANN_LAT NEUMANN_LON NEUMANN_CLASS NEUMANN_WIND NEUMANN_PRES MLC_LAT MLC_LON MLC_CLASS MLC_WIND MLC_PRES USA_GUST BOM_GUST BOM_GUST_PER REUNION_GUST REUNION_GUST_PER USA_SEAHGT USA_SEARAD_NE USA_SEARAD_SE USA_SEARAD_SW USA_SEARAD_NW STORM_SPEED STORM_DIR
1998032S18036 1998 10 SI MM BELTANE 1998-02-01 00:00:00 TS -18.1000 35.6000 main 0 0 O___________O_ jtwc_sh SH211998 -18.1000 35.6000 25 -1 -18.1000 35.6000 TC 25 5 169
1998032S18036 1998 10 SI MM BELTANE 1998-02-01 03:00:00 TS -18.3550 35.6375 main 0 0 P___________P_ SH211998 -18.3550 35.6375 22 -1 -18.3550 35.6375 TC 22 5 169
1998032S18036 1998 10 SI MM BELTANE 1998-02-01 06:00:00 TS -18.6000 35.7000 main 0 0 O___________O_ jtwc_sh SH211998 -18.6000 35.7000 20 -1 -18.6000 35.7000 TC 20 5 162
1998032S18036 1998 10 SI MM BELTANE 1998-02-01 09:00:00 TS -18.8350 35.8000 main 0 0 P___________P_ SH211998 -18.8350 35.8000 22 -1 -18.8350 35.8000 TC 22 5 159
1998032S18036 1998 10 SI MM BELTANE 1998-02-01 12:00:00 TS -19.1000 35.9000 main 11 11 O___________O_ jtwc_sh SH211998 -19.1000 35.9000 25 -1 -19.1000 35.9000 TC 25 6 167
1998032S18036 1998 10 SI MM BELTANE 1998-02-01 15:00:00 TS -19.4575 35.9426 main 46 46 P___________P_ SH211998 -19.4575 35.9426 25 -1 -19.4575 35.9426 TC 25 7 172
1998032S18036 1998 10 SI MM BELTANE 1998-02-01 18:00:00 TS -19.8000 36.0000 main 76 76 O___________O_ jtwc_sh SH211998 -19.8000 36.0000 25 -1 -19.8000 36.0000 TC 25 6 165
1998032S18036 1998 10 SI MM BELTANE 1998-02-01 21:00:00 TS -20.0449 36.1125 main 99 99 P___________P_ SH211998 -20.0449 36.1125 25 -1 -20.0449 36.1125 TC 25 5 145
1998032S18036 1998 10 SI MM BELTANE 1998-02-02 00:00:00 TS -20.2000 36.3000 main 129 129 O___________O_ jtwc_sh SH211998 -20.2000 36.3000 25 -1 -20.2000 36.3000 TC 25 5 118
1998032S18036 1998 10 SI MM BELTANE 1998-02-02 03:00:00 TS -20.2800 36.5775 main 159 159 P___________P_ SH211998 -20.2800 36.5775 25 -1 -20.2800 36.5775 TC 25 6 100
1998032S18036 1998 10 SI MM BELTANE 1998-02-02 06:00:00 TS -20.3000 36.9000 main 168 168 O___________O_ jtwc_sh SH211998 -20.3000 36.9000 25 -1 -20.3000 36.9000 TC 25 6 96
1998032S18036 1998 10 SI MM BELTANE 1998-02-02 09:00:00 TS -20.3374 37.1924 main 182 182 P___________P_ SH211998 -20.3374 37.1924 25 -1 -20.3374 37.1924 TC 25 6 90
1998032S18036 1998 10 SI MM BELTANE 1998-02-02 12:00:00 TS -20.3000 37.5000 main 200 199 O___________O_ jtwc_sh SH211998 -20.3000 37.5000 25 -1 -20.3000 37.5000 TC 25 7 72
1998032S18036 1998 10 SI MM BELTANE 1998-02-02 15:00:00 TS -20.1301 37.8577 main 214 214 P___________P_ SH211998 -20.1301 37.8577 25 -1 -20.1301 37.8577 TC 25 8 59
1998032S18036 1998 10 SI MM BELTANE 1998-02-02 18:00:00 TS -19.9000 38.2000 main 228 228 O___________O_ jtwc_sh SH211998 -19.9000 38.2000 25 -1 -19.9000 38.2000 TC 25 7 53
1998032S18036 1998 10 SI MM BELTANE 1998-02-02 21:00:00 TS -19.7074 38.4648 main 237 229 P___________P_ SH211998 -19.7074 38.4648 25 -1 -19.7074 38.4648 TC 25 6 50
1998032S18036 1998 10 SI MM BELTANE 1998-02-03 00:00:00 TS -19.5000 38.7000 main 237 237 O___________O_ jtwc_sh SH211998 -19.5000 38.7000 25 -1 -19.5000 38.7000 TC 25 7 45
1998032S18036 1998 10 SI MM BELTANE 1998-02-03 03:00:00 TS -19.2425 38.9500 main 232 216 P___________P_ SH211998 -19.2425 38.9500 25 -1 -19.2425 38.9500 TC 25 7 43
1998032S18036 1998 10 SI MM BELTANE 1998-02-03 06:00:00 TS -19.0000 39.2000 main 219 203 O___________O_ jtwc_sh SH211998 -19.0000 39.2000 25 -1 -19.0000 39.2000 TC 25 6 47
1998032S18036 1998 10 SI MM BELTANE 1998-02-03 09:00:00 TS -18.8274 39.4274 main 203 197 P___________P_ SH211998 -18.8274 39.4274 25 -1 -18.8274 39.4274 TC 25 6 58
1998032S18036 1998 10 SI MM BELTANE 1998-02-03 12:00:00 TS -18.7000 39.7000 main 200 193 O___________O_ jtwc_sh SH211998 -18.7000 39.7000 25 -1 -18.7000 39.7000 TC 25 7 67
1998032S18036 1998 10 SI MM BELTANE 1998-02-03 15:00:00 TS -18.5774 40.0626 main 207 207 P___________P_ SH211998 -18.5774 40.0626 25 -1 -18.5774 40.0626 TC 25 9 79
1998032S18036 1998 10 SI MM BELTANE 1998-02-03 18:00:00 TS -18.5222 40.6333 25 1000 reunion main 231 231 O____O______O_ jtwc_sh SH211998 -18.5000 40.5000 25 -1 -18.7000 41.7000 2 25 1000 2.00000 2.00000 -18.5000 40.5000 TC 25 11 86
1998032S18036 1998 10 SI MM BELTANE 1998-02-03 21:00:00 TS -18.5060 41.1965 main 268 242 P____P______P_ SH211998 -18.4700 40.9850 25 -1 -18.6502 42.0426 2 25 999 -18.4700 40.9850 TC 25 10 92
1998032S18036 1998 10 SI MM BELTANE 1998-02-04 00:00:00 TS -18.5545 41.7182 25 999 reunion main 243 203 O____O______O_ jtwc_sh SH211998 -18.5000 41.5000 25 -1 -18.7000 42.3000 2 25 999 2.00000 2.00000 -18.5000 41.5000 TC 25 9 101
1998032S18036 1998 10 SI MM BELTANE 1998-02-04 03:00:00 TS -18.6849 42.1408 main 203 164 P____P______P_ SH211998 -18.5774 42.0000 25 -1 -18.8999 42.4225 2 25 999 -18.5774 42.0000 TC 25 8 111
1998032S18036 1998 10 SI MM BELTANE 1998-02-04 06:00:00 TS -18.8333 42.5000 25 999 reunion main 164 128 O____O______O_ jtwc_sh SH211998 -18.7000 42.5000 25 -1 -19.1000 42.5000 2 25 999 2.00000 2.00000 -18.7000 42.5000 TC 25 8 109
1998032S18036 1998 10 SI MM BELTANE 1998-02-04 09:00:00 TS -18.9334 42.8983 main 128 105 P____P______P_ SH211998 -18.8351 43.0300 25 -1 -19.1300 42.6351 2 25 999 -18.8351 43.0300 TC 25 8 105
1998032S18036 1998 10 SI MM BELTANE 1998-02-04 12:00:00 TS -19.0333 43.2667 25 999 reunion main 94 73 O____O______O_ jtwc_sh SH211998 -19.0000 43.5000 25 -1 -19.1000 42.8000 2 25 999 2.00000 2.00000 -19.0000 43.5000 TC 25 7 111
1998032S18036 1998 10 SI MM BELTANE 1998-02-04 15:00:00 TS -19.1740 43.5508 main 64 47 P____P______P_ SH211998 -19.2147 43.8225 25 -1 -19.0925 43.0075 2 25 999 -19.2147 43.8225 TC 25 6 118
1998032S18036 1998 10 SI MM BELTANE 1998-02-04 18:00:00 TS -19.3000 43.8000 25 1000 reunion main 47 38 O____O______O_ jtwc_sh SH211998 -19.4000 44.1000 25 -1 -19.1000 43.2000 2 25 1000 2.00000 2.00000 -19.4000 44.1000 TC 25 5 114
1998032S18036 1998 10 SI MM BELTANE 1998-02-04 21:00:00 TS -19.3824 44.0567 main 30 15 P____P______P_ SH211998 -19.4949 44.4350 25 -1 -19.1574 43.3000 2 25 1000 -19.4949 44.4350 TC 25 5 101
1998032S18036 1998 10 SI MM BELTANE 1998-02-05 00:00:00 TS -19.4000 44.3333 25 1000 reunion main 15 0 O____O______O_ jtwc_sh SH211998 -19.5000 44.8000 25 -1 -19.2000 43.4000 2 25 1000 2.00000 2.00000 -19.5000 44.8000 TC 25 6 86
1998032S18036 1998 10 SI MM BELTANE 1998-02-05 03:00:00 TS -19.3368 44.6768 main 0 0 P____P______P_ SH211998 -19.4227 45.2302 22 -1 -19.1650 43.5700 2 25 1000 -19.4227 45.2302 TC 22 7 75
1998032S18036 1998 10 SI MM BELTANE 1998-02-05 06:00:00 TS -19.2333 45.0000 25 1000 reunion main 0 0 O____O______O_ jtwc_sh SH211998 -19.3000 45.6000 20 -1 -19.1000 43.8000 2 25 1000 2.00000 2.00000 -19.3000 45.6000 TC 20 6 72
1998032S18036 1998 10 SI MM BELTANE 1998-02-05 09:00:00 TS -19.1624 45.2324 main 0 0 P____P______P_ SH211998 -19.2074 45.7949 20 -1 -19.0726 44.1074 2 1000 -19.2074 45.7949 TC 20 4 66
1998032S18036 1998 10 SI MM BELTANE 1998-02-05 12:00:00 TS -19.0667 45.4000 1000 reunion main 0 0 O____O______O_ jtwc_sh SH211998 -19.1000 45.9000 20 -1 -19.0000 44.4000 8 1000 9.90000 -19.1000 45.9000 TC 20 4 50
1998032S18036 1998 10 SI MM BELTANE 1998-02-05 15:00:00 TS -18.9000 45.5617 main 0 0 P____P______P_ SH211998 -18.9500 46.0451 20 -1 -18.7999 44.5951 8 1000 -18.9500 46.0451 TC 20 4 33
1998032S18036 1998 10 SI MM BELTANE 1998-02-05 18:00:00 TS -18.7333 45.6333 1000 reunion main 0 0 O____O______O_ jtwc_sh SH211998 -18.8000 46.1000 20 -1 -18.6000 44.7000 8 1000 9.90000 -18.8000 46.1000 TC 20 3 0
1998032S18036 1998 10 SI MM BELTANE 1998-02-05 21:00:00 TS -18.6200 45.5682 main 0 0 P____P______P_ SH211998 -18.6775 45.9874 20 -1 -18.5050 44.7299 8 1000 -18.6775 45.9874 TC 20 3 311
1998032S18036 1998 10 SI MM BELTANE 1998-02-06 00:00:00 TS -18.5667 45.4333 1000 reunion main 0 0 O____O______O_ jtwc_sh SH211998 -18.6000 45.8000 20 -1 -18.5000 44.7000 8 1000 9.90000 -18.6000 45.8000 TC 20 3 284
1998032S18036 1998 10 SI MM BELTANE 1998-02-06 03:00:00 TS -18.5575 45.3117 main 0 0 P____P______P_ SH211998 -18.5625 45.6425 22 -1 -18.5475 44.6500 8 1001 -18.5625 45.6425 TC 22 2 253
1998032S18036 1998 10 SI MM BELTANE 1998-02-06 06:00:00 TS -18.6333 45.2000 1002 reunion main 0 0 O____O______O_ jtwc_sh SH211998 -18.6000 45.5000 25 -1 -18.7000 44.6000 8 1002 9.90000 -18.6000 45.5000 TC 25 3 216
1998032S18036 1998 10 SI MM BELTANE 1998-02-06 09:00:00 TS -18.8108 45.1184 main 0 0 P____P______P_ SH211998 -18.7275 45.3776 25 -1 -18.9775 44.5999 8 1002 -18.7275 45.3776 TC 25 4 197
1998032S18036 1998 10 SI MM BELTANE 1998-02-06 12:00:00 TS -19.0333 45.0667 1002 reunion main 0 0 O____O______O_ jtwc_sh SH211998 -18.9000 45.3000 25 -1 -19.3000 44.6000 8 1002 9.90000 -18.9000 45.3000 TC 25 4 191
1998032S18036 1998 10 SI MM BELTANE 1998-02-06 15:00:00 TS -19.2242 45.0375 main 0 0 P____P______P_ SH211998 -19.0425 45.2775 25 -1 -19.5875 44.5575 8 1003 -19.0425 45.2775 TC 25 4 186
1998032S18036 1998 10 SI MM BELTANE 1998-02-06 18:00:00 TS -19.4000 45.0333 1004 reunion main 0 0 O____O______O_ jtwc_sh SH211998 -19.2000 45.3000 25 -1 -19.8000 44.5000 8 1004 9.90000 -19.2000 45.3000 TC 25 3 176
1998032S18036 1998 10 SI MM BELTANE 1998-02-06 21:00:00 TS -19.5350 45.0375 main 0 0 P____P______P_ SH211998 -19.3625 45.3351 25 -1 -19.8800 44.4425 8 1004 -19.3625 45.3351 TC 25 3 175
1998032S18036 1998 10 SI MM BELTANE 1998-02-07 00:00:00 TS -19.7000 45.0667 1004 reunion main 0 0 O____O______O_ jtwc_sh SH211998 -19.6000 45.4000 25 -1 -19.9000 44.4000 2 1004 1.50000 1.50000 -19.6000 45.4000 TC 25 4 170
1998032S18036 1998 10 SI MM BELTANE 1998-02-07 03:00:00 TS -19.9558 45.1208 main 0 0 P____P______P_ SH211998 -19.9775 45.4924 25 -1 -19.9125 44.3776 2 1004 -19.9775 45.4924 TC 25 6 168
1998032S18036 1998 10 SI MM BELTANE 1998-02-07 06:00:00 TS -20.2667 45.2000 1005 reunion main 0 0 O____O______O_ jtwc_sh SH211998 -20.4000 45.6000 25 -1 -20.0000 44.4000 2 1005 1.50000 1.50000 -20.4000 45.6000 TC 25 7 164
1998032S18036 1998 10 SI MM BELTANE 1998-02-07 09:00:00 TS -20.5875 45.3074 main 0 0 P____P______P_ SH211998 -20.7500 45.7150 25 -1 -20.2625 44.4924 2 1004 -20.7500 45.7150 TC 25 7 164
1998032S18036 1998 10 SI MM BELTANE 1998-02-07 12:00:00 TS -20.9333 45.4000 1003 reunion main 0 0 O____O______O_ jtwc_sh SH211998 -21.1000 45.8000 25 -1 -20.6000 44.6000 8 1003 9.90000 -21.1000 45.8000 TC 25 7 172
1998032S18036 1998 10 SI MM BELTANE 1998-02-07 15:00:00 TS -21.2900 45.4169 main 0 0 P____P______P_ SH211998 -21.4925 45.8002 25 -1 -20.8850 44.6501 8 1003 -21.4925 45.8002 TC 25 7 176
1998032S18036 1998 10 SI MM BELTANE 1998-02-07 18:00:00 TS -21.6667 45.4333 1003 reunion main 0 0 O____O______O_ jtwc_sh SH211998 -21.9000 45.8000 25 -1 -21.2000 44.7000 8 1003 9.90000 -21.9000 45.8000 TC 25 8 172
1998032S18036 1998 10 SI MM BELTANE 1998-02-07 21:00:00 TS -22.0567 45.5332 main 0 0 P____P______P_ SH211998 -22.3000 45.9072 27 -1 -21.5700 44.7851 8 1003 -22.3000 45.9072 TC 27 8 167
1998032S18036 1998 10 SI MM BELTANE 1998-02-08 00:00:00 TS -22.4667 45.6333 1003 reunion main 0 0 O____O______O_ jtwc_sh SH211998 -22.7000 46.0000 30 -1 -22.0000 44.9000 8 1003 9.90000 -22.7000 46.0000 TC 30 9 171
1998032S18036 1998 10 SI MM BELTANE 1998-02-08 03:00:00 TS -22.8975 45.6799 main 0 0 P____P______P_ SH211998 -23.1000 45.9950 30 -1 -22.4925 45.0499 8 1003 -23.1000 45.9950 TC 30 9 177
1998032S18036 1998 10 SI MM BELTANE 1998-02-08 06:00:00 TS -23.3333 45.6667 1003 reunion main 0 0 O____O______O_ jtwc_sh SH211998 -23.5000 45.9000 30 -1 -23.0000 45.2000 8 1003 9.90000 -23.5000 45.9000 TC 30 9 185
1998032S18036 1998 10 SI MM BELTANE 1998-02-08 09:00:00 TS -23.7524 45.6016 main 0 0 P____P______P_ SH211998 -23.8999 45.7449 30 -1 -23.4575 45.3151 8 1003 -23.8999 45.7449 TC 30 9 192
1998032S18036 1998 10 SI MM BELTANE 1998-02-08 12:00:00 TS -24.1667 45.4667 1003 reunion main 0 0 O____O______O_ jtwc_sh SH211998 -24.3000 45.5000 30 -1 -23.9000 45.4000 8 1003 9.90000 -24.3000 45.5000 TC 30 9 200
1998032S18036 1998 10 SI MM BELTANE 1998-02-08 15:00:00 TS -24.5908 45.2750 main 0 0 P____P______P_ SH211998 -24.7075 45.1800 30 -1 -24.3575 45.4650 8 1003 -24.7075 45.1800 TC 30 9 205
1998032S18036 1998 10 SI MM BELTANE 1998-02-08 18:00:00 TS -25.0000 45.0333 1003 reunion main 0 0 O____O______O_ jtwc_sh SH211998 -25.1000 44.8000 30 -1 -24.8000 45.5000 8 1003 9.90000 -25.1000 44.8000 TC 30 9 211
1998032S18036 1998 10 SI MM BELTANE 1998-02-08 21:00:00 TS -25.3793 44.7517 main 10 10 P____P______P_ SH211998 -25.4653 44.3478 32 -1 -25.2074 45.5596 8 1002 -25.4653 44.3478 TC 32 9 213
1998032S18036 1998 10 SI MM BELTANE 1998-02-09 00:00:00 MX -25.7333 44.5000 20 1002 reunion main 44 44 O____O______O_ jtwc_sh SH211998 -25.8000 44.0000 35 0 -25.6000 45.5000 7 20 1002 9.90000 -25.8000 44.0000 TC 35 8 207
1998032S18036 1998 10 SI MM BELTANE 1998-02-09 03:00:00 MX -26.0816 44.3582 main 89 89 P____P______P_ SH211998 -26.1148 43.9395 35 0 -26.0152 45.1955 7 22 1002 -26.1148 43.9395 TC 35 7 197
1998032S18036 1998 10 SI MM BELTANE 1998-02-09 06:00:00 MX -26.4000 44.2667 25 1002 reunion main 122 122 O____O______O_ jtwc_sh SH211998 -26.4000 44.0000 35 0 -26.4000 44.8000 7 25 1002 9.90000 -26.4000 44.0000 TC 35 6 200
1998032S18036 1998 10 SI MM BELTANE 1998-02-09 09:00:00 MX -26.6442 44.1319 main 148 148 P____P______P_ SH211998 -26.6050 43.9778 35 0 -26.7226 44.4401 7 27 1001 -26.6050 43.9778 TC 35 6 198
1998032S18036 1998 10 SI MM BELTANE 1998-02-09 12:00:00 MX -26.9333 44.0667 30 1000 reunion main 180 180 O____O______O_ jtwc_sh SH211998 -26.9000 44.0000 35 0 -27.0000 44.2000 7 30 1000 9.90000 -26.9000 44.0000 TC 35 8 178
1998032S18036 1998 10 SI MM BELTANE 1998-02-09 15:00:00 MX -27.3966 44.1334 main 228 228 P____P______P_ SH211998 -27.4474 44.0978 35 0 -27.2949 44.2046 7 30 1000 -27.4474 44.0978 TC 35 10 167
1998032S18036 1998 10 SI MM BELTANE 1998-02-09 18:00:00 MX -27.8600 44.3000 30 1000 reunion main 271 271 O____O______O_ jtwc_sh SH211998 -28.1000 44.3000 35 0 -27.5000 44.3000 7 30 1000 9.90000 -28.1000 44.3000 TC 35 8 159
1998032S18036 1998 10 SI MM BELTANE 1998-02-09 21:00:00 MX -28.1389 44.4507 main 287 287 P____P______P_ SH211998 -28.7277 44.6232 32 -1 -27.5600 44.2850 7 30 1000 -28.7178 44.6165 TC 32 3 139
1998032S18036 1998 10 SI MM BELTANE 1998-02-10 00:00:00 MX -28.1000 44.5333 30 1000 reunion main 287 216 O____O______O_ jtwc_sh SH211998 -29.3000 45.0000 30 -1 -27.5000 44.3000 7 30 1000 9.90000 -29.3000 45.0000 TC 30 8 357
1998032S18036 1998 10 SI MM BELTANE 1998-02-10 03:00:00 SS -27.3800 44.4125 main 216 188 _____P________ SH211998 -1 -27.3800 44.4125 7 30 1000 TC 9 3
1998032S18036 1998 10 SI MM BELTANE 1998-02-10 06:00:00 SS -27.2000 44.6000 30 1000 reunion main 188 161 _____O________ SH211998 -1 -27.2000 44.6000 7 30 1000 9.90000 5 47
1998032S18036 1998 10 SI MM BELTANE 1998-02-10 09:00:00 SS -27.0151 44.8576 main 159 134 _____P________ SH211998 -1 -27.0151 44.8576 7 30 1000 6 48
1998032S18036 1998 10 SI MM BELTANE 1998-02-10 12:00:00 SS -26.8000 45.1000 30 1000 reunion main 134 111 _____O________ SH211998 -1 -26.8000 45.1000 7 30 1000 9.90000 6 40
1998032S18036 1998 10 SI MM BELTANE 1998-02-10 15:00:00 SS -26.5799 45.2677 main 111 78 _____P________ SH211998 -1 -26.5799 45.2677 7 30 1000 5 20
1998032S18036 1998 10 SI MM BELTANE 1998-02-10 18:00:00 SS -26.3000 45.3000 30 1000 reunion main 78 44 _____O________ SH211998 -1 -26.3000 45.3000 7 30 1000 9.90000 7 351
1998032S18036 1998 10 SI MM BELTANE 1998-02-10 21:00:00 SS -25.9300 45.1599 main 33 10 _____P________ SH211998 -1 -25.9300 45.1599 7 30 1000 9 336
1998032S18036 1998 10 SI MM BELTANE 1998-02-11 00:00:00 SS -25.5000 44.9000 30 1000 reunion main 10 0 _____O________ SH211998 -1 -25.5000 44.9000 7 30 1000 9.90000 10 328
1998032S18036 1998 10 SI MM BELTANE 1998-02-11 03:00:00 SS -25.1026 44.5849 main 0 0 _____P________ SH211998 -1 -25.1026 44.5849 7 1000 11 329
1998032S18036 1998 10 SI MM BELTANE 1998-02-11 06:00:00 NR -24.6000 44.3000 1000 reunion main 0 0 _____O________ SH211998 -1 -24.6000 44.3000 8 1000 9.90000 12 343
1998032S18036 1998 10 SI MM BELTANE 1998-02-11 09:00:00 NR -23.9173 44.1934 main 0 0 _____P________ SH211998 -1 -23.9173 44.1934 8 1000 15 353
1998032S18036 1998 10 SI MM BELTANE 1998-02-11 12:00:00 NR -23.1000 44.1000 1000 reunion main 0 0 _____O________ SH211998 -1 -23.1000 44.1000 8 1000 9.90000 18 349
1998032S18036 1998 10 SI MM BELTANE 1998-02-11 15:00:00 NR -22.1777 43.8264 main 0 0 _____P________ SH211998 -1 -22.1777 43.8264 8 1000 19 346
1998032S18036 1998 10 SI MM BELTANE 1998-02-11 18:00:00 NR -21.3000 43.6000 1000 reunion main 11 11 _____O________ SH211998 -1 -21.3000 43.6000 8 1000 9.90000 16 354
1998032S18036 1998 10 SI MM BELTANE 1998-02-11 21:00:00 NR -20.6100 43.6359 main 38 38 _____P________ SH211998 -1 -20.6100 43.6359 8 1000 12 5
1998032S18036 1998 10 SI MM BELTANE 1998-02-12 00:00:00 TS -20.1000 43.7000 15 1000 reunion main 61 61 _____O________ SH211998 -1 -20.1000 43.7000 2 15 1000 1.00000 1.00000 9 355
1998032S18036 1998 10 SI MM BELTANE 1998-02-12 03:00:00 TS -19.7551 43.5497 main 94 92 _____P________ SH211998 -1 -19.7551 43.5497 2 17 1000 7 335
1998032S18036 1998 10 SI MM BELTANE 1998-02-12 06:00:00 TS -19.5000 43.4000 20 1000 reunion main 95 84 _____O________ SH211998 -1 -19.5000 43.4000 2 20 1000 1.50000 1.50000 6 348
1998032S18036 1998 10 SI MM BELTANE 1998-02-12 09:00:00 TS -19.2000 43.4277 main 84 73 _____P________ SH211998 -1 -19.2000 43.4277 2 20 1000 6 9
1998032S18036 1998 10 SI MM BELTANE 1998-02-12 12:00:00 TS -18.9000 43.5000 20 1000 reunion main 73 57 _____O________ SH211998 -1 -18.9000 43.5000 2 20 1000 1.50000 1.50000 6 6
1998032S18036 1998 10 SI MM BELTANE 1998-02-12 15:00:00 TS -18.6075 43.4999 main 57 52 _____P________ SH211998 -1 -18.6075 43.4999 2 20 1000 9 353
1998032S18036 1998 10 SI MM BELTANE 1998-02-12 18:00:00 TS -18.0400 43.3800 20 1000 reunion main 63 63 O____O________ jtwc_sh SH231998 -17.0000 42.9000 25 -1 -18.3000 43.5000 2 20 1000 1.50000 1.50000 10 348
1998032S18036 1998 10 SI MM BELTANE 1998-02-12 21:00:00 TS -17.5900 43.2692 main 64 63 P____P________ SH231998 -16.8711 42.6935 25 -1 -17.9425 43.5576 2 22 999 8 343
1998032S18036 1998 10 SI MM BELTANE 1998-02-13 00:00:00 TS -17.2571 43.1286 25 999 reunion main 87 87 O____O________ jtwc_sh SH231998 -16.8000 42.5000 25 -1 -17.6000 43.6000 2 25 999 2.00000 2.00000 6 331
1998032S18036 1998 10 SI MM BELTANE 1998-02-13 03:00:00 TS -17.0375 42.9500 main 120 120 P____P________ SH231998 -16.7700 42.3350 25 -1 -17.3050 43.5649 2 25 999 4 319
1998032S18036 1998 10 SI MM BELTANE 1998-02-13 06:00:00 TS -16.9500 42.8500 25 999 reunion main 125 120 O____O________ jtwc_sh SH231998 -16.8000 42.2000 25 -1 -17.1000 43.5000 2 25 999 2.00000 2.00000 1 312
1998032S18036 1998 10 SI MM BELTANE 1998-02-13 09:00:00 TS -16.9632 42.8682 main 120 120 P____P________ SH231998 -16.8789 42.0889 25 -1 -17.0275 43.4500 2 25 999 1 121
1998032S18036 1998 10 SI MM BELTANE 1998-02-13 12:00:00 TS -17.0000 42.9333 25 999 reunion main 120 110 O____O________ jtwc_sh SH231998 -17.0000 42.0000 25 -1 -17.0000 43.4000 2 25 999 1.50000 2.00000 2 84
1998032S18036 1998 10 SI MM BELTANE 1998-02-13 15:00:00 TS -16.9470 43.0360 main 116 96 _____P________ SH231998 -1 -16.9000 43.3200 2 25 999 4 60
1998032S18036 1998 10 SI MM BELTANE 1998-02-13 18:00:00 TS -16.8000 43.3000 25 1000 reunion main 96 86 _____O________ SH231998 -1 -16.8000 43.3000 2 25 1000 1.50000 2.00000 4 63
1998032S18036 1998 10 SI MM BELTANE 1998-02-13 21:00:00 TS -16.7500 43.4350 main 86 77 _____P________ SH231998 -1 -16.7500 43.4350 2 22 1001 3 71
1998032S18036 1998 10 SI MM BELTANE 1998-02-14 00:00:00 TS -16.7000 43.6000 20 1002 reunion main 77 72 _____O________ SH231998 -1 -16.7000 43.6000 2 20 1002 1.50000 1.50000 3 55
1998032S18036 1998 10 SI MM BELTANE 1998-02-14 03:00:00 TS -16.5925 43.6725 main 72 72 _____P________ SH231998 -1 -16.5925 43.6725 2 20 1003 2 27
1998032S18036 1998 10 SI MM BELTANE 1998-02-14 06:00:00 TS -16.5000 43.7000 20 1004 reunion main 74 74 _____O________ SH231998 -1 -16.5000 43.7000 2 20 1004 1.50000 1.50000 1 15
1998032S18036 1998 10 SI MM BELTANE 1998-02-14 09:00:00 TS -16.4550 43.7150 main 74 74 _____P________ SH231998 -1 -16.4550 43.7150 2 20 1004 0 0
1998032S18036 1998 10 SI MM BELTANE 1998-02-14 12:00:00 TS -16.5000 43.7000 20 1004 reunion main 74 67 _____O________ SH231998 -1 -16.5000 43.7000 2 20 1004 1.50000 1.50000 2 191
1998032S18036 1998 10 SI MM BELTANE 1998-02-14 15:00:00 TS -16.6850 43.6650 main 67 62 _____P________ SH231998 -1 -16.6850 43.6650 2 20 1004 4 193
1998032S18036 1998 10 SI MM BELTANE 1998-02-14 18:00:00 TS -16.9000 43.6000 20 1004 reunion main 62 57 _____O________ SH231998 -1 -16.9000 43.6000 2 20 1004 1.50000 1.50000 3 200
1998032S18036 1998 10 SI MM BELTANE 1998-02-14 21:00:00 TS -16.9699 43.5522 main 57 57 _____P________ SH231998 -1 -16.9699 43.5522 2 20 1004 3 224
1998032S18036 1998 10 SI MM BELTANE 1998-02-15 00:00:00 TS -17.1000 43.4000 20 1004 reunion main 69 69 _____O________ SH231998 -1 -17.1000 43.4000 2 20 1004 1.50000 1.50000 7 226
1998032S18036 1998 10 SI MM BELTANE 1998-02-15 03:00:00 TS -17.4242 43.0530 main 85 85 _____P________ SH231998 -1 -17.4175 43.0598 2 20 1004 11 224
1998032S18036 1998 10 SI MM BELTANE 1998-02-15 06:00:00 TS -17.9000 42.6000 20 1004 reunion main 144 144 _____O________ SH231998 -1 -17.9000 42.6000 2 20 1004 1.50000 1.50000 15 220
1998032S18036 1998 10 SI MM BELTANE 1998-02-15 09:00:00 TS -18.5503 42.0559 main 201 201 _____P________ SH231998 -1 -18.5503 42.0559 2 20 1003 16 216
1998032S18036 1998 10 SI MM BELTANE 1998-02-15 12:00:00 TS -19.2000 41.6000 20 1002 reunion main 268 268 _____O________ SH231998 -1 -19.2000 41.6000 2 20 1002 1.50000 1.50000 13 207
1998032S18036 1998 10 SI MM BELTANE 1998-02-15 15:00:00 TS -19.7270 41.4272 main 288 262 _____P________ SH231998 -1 -19.6447 41.4244 2 22 1001 10 190
1998032S18036 1998 10 SI MM BELTANE 1998-02-15 18:00:00 TS -20.1400 41.4200 25 1000 reunion main 262 240 O____O________ jtwc_sh SH231998 -20.7000 41.5000 30 -1 -20.0000 41.4000 2 25 1000 2.00000 2.00000 8 179
1998032S18036 1998 10 SI MM BELTANE 1998-02-15 21:00:00 TS -20.5327 41.4333 main 240 214 P____P________ SH231998 -20.9973 41.5388 30 -1 -20.3575 41.3923 2 27 998 8 177
1998032S18036 1998 10 SI MM BELTANE 1998-02-16 00:00:00 TS -20.9000 41.4667 30 997 reunion main 214 206 O____O________ jtwc_sh SH231998 -21.3000 41.6000 30 -1 -20.7000 41.4000 2 30 997 2.50000 2.50000 7 177
1998032S18036 1998 10 SI MM BELTANE 1998-02-16 03:00:00 TS -21.2033 41.4667 main 206 192 P____P________ SH231998 -21.5850 41.6851 32 -1 -21.0125 41.3575 2 32 994 7 179
1998032S18036 1998 10 SI MM BELTANE 1998-02-16 06:00:00 TS -21.5667 41.4667 35 992 reunion main 187 175 O____O________ jtwc_sh SH231998 -21.9000 41.8000 35 0 -21.4000 41.3000 3 35 992 3.00000 3.00000 9 0
1998032S18036 1998 10 SI MM BELTANE 1998-02-16 09:00:00 TS -22.0875 41.4511 main 175 174 P____P________ SH231998 -22.2925 41.9276 37 0 -21.9850 41.2129 3 35 992 11 178
1998032S18036 1998 10 SI MM BELTANE 1998-02-16 12:00:00 TS -22.6333 41.5000 35 992 reunion main 177 177 O____O________ jtwc_sh SH231998 -22.7000 42.1000 40 0 -22.6000 41.2000 3 35 992 3.00000 3.00000 10 169
1998032S18036 1998 10 SI MM BELTANE 1998-02-16 15:00:00 TS -23.0974 41.6565 main 177 167 P____P________ SH231998 -23.0575 42.3350 40 0 -23.1173 41.3173 3 35 992 9 154
1998032S18036 1998 10 SI MM BELTANE 1998-02-16 18:00:00 TS -23.4667 41.9333 35 992 reunion main 172 132 O____O________ jtwc_sh SH231998 -23.4000 42.6000 40 0 -23.5000 41.6000 3 35 992 3.00000 3.00000 9 134
1998032S18036 1998 10 SI MM BELTANE 1998-02-16 21:00:00 TS -23.7086 42.3427 main 132 92 P____P________ SH231998 -23.7650 42.8724 40 0 -23.6804 42.0778 3 35 992 9 120
1998032S18036 1998 10 SI MM BELTANE 1998-02-17 00:00:00 TS -23.9000 42.7667 35 992 reunion main 84 69 O____O________ jtwc_sh SH231998 -24.1000 43.1000 40 0 -23.8000 42.6000 3 35 992 2.50000 3.00000 8 124
1998032S18036 1998 10 SI MM BELTANE 1998-02-17 03:00:00 TS -24.1448 43.0610 main 60 50 P____P________ SH231998 -24.3949 43.2227 37 0 -24.0198 42.9802 3 35 992 7 136
1998032S18036 1998 10 SI MM BELTANE 1998-02-17 06:00:00 TS -24.4000 43.3000 35 993 reunion main 50 23 O____O________ jtwc_sh SH231998 -24.6000 43.3000 35 0 -24.3000 43.3000 3 35 993 2.50000 3.00000 7 140
1998032S18036 1998 10 SI MM BELTANE 1998-02-17 09:00:00 TS -24.7126 43.5806 main 23 20 P____P________ SH231998 -24.7025 43.4075 35 0 -24.7176 43.6671 3 32 994 7 140
1998032S18036 1998 10 SI MM BELTANE 1998-02-17 12:00:00 TS -24.9000 43.7667 30 995 reunion main 20 15 O____O________ jtwc_sh SH231998 -24.7000 43.5000 35 0 -25.0000 43.9000 2 30 995 2.50000 2.50000 2 118
1998032S18036 1998 10 SI MM BELTANE 1998-02-17 15:00:00 TS -24.8157 43.7920 main 15 10 P____P________ SH231998 -24.6374 43.6102 35 0 -24.9049 43.8829 2 30 996 3 345
1998032S18036 1998 10 SI MM BELTANE 1998-02-17 18:00:00 TS -24.5667 43.6667 30 997 reunion main 10 10 O____O________ jtwc_sh SH231998 -24.5000 43.6000 35 0 -24.6000 43.7000 2 30 997 2.00000 2.50000 6 329
1998032S18036 1998 10 SI MM BELTANE 1998-02-17 21:00:00 TS -24.2817 43.4449 main 37 32 P____P________ SH231998 -24.3301 43.3600 35 0 -24.2575 43.4874 2 30 997 8 321
1998032S18036 1998 10 SI MM BELTANE 1998-02-18 00:00:00 TS -23.9667 43.1333 30 998 reunion main 60 55 O____O________ jtwc_sh SH231998 -24.1000 43.0000 35 0 -23.9000 43.2000 2 30 998 2.00000 2.50000 8 315
1998032S18036 1998 10 SI MM BELTANE 1998-02-18 03:00:00 TS -23.7147 42.8288 main 81 81 P____P________ SH231998 -23.8298 42.6803 35 0 -23.6572 42.9031 2 27 999 8 310
1998032S18036 1998 10 SI MM BELTANE 1998-02-18 06:00:00 TS -23.4333 42.4333 25 1000 reunion main 122 122 O____O________ jtwc_sh SH231998 -23.5000 42.3000 35 0 -23.4000 42.5000 2 25 1000 1.50000 2.00000 11 308
1998032S18036 1998 10 SI MM BELTANE 1998-02-18 09:00:00 TS -23.0485 41.8863 main 154 154 P____P________ SH231998 -23.1146 41.8603 35 0 -23.0155 41.8994 2 25 1001 13 308
1998032S18036 1998 10 SI MM BELTANE 1998-02-18 12:00:00 TS -22.6300 41.3000 25 1002 reunion main 198 198 O____O________ jtwc_sh SH231998 -22.7000 41.3000 35 0 -22.6000 41.3000 2 25 1002 1.50000 2.00000 12 309
1998032S18036 1998 10 SI MM BELTANE 1998-02-18 15:00:00 TS -22.2642 40.8416 main 246 246 P____P________ SH231998 -22.2960 40.5916 35 0 -22.2644 40.9435 2 22 1003 11 313
1998032S18036 1998 10 SI MM BELTANE 1998-02-18 18:00:00 TS -21.9000 40.4667 20 1004 reunion main 280 280 O____O________ jtwc_sh SH231998 -21.9000 39.8000 35 0 -21.9000 40.6000 2 20 1004 1.50000 1.50000 11 319
1998032S18036 1998 10 SI MM BELTANE 1998-02-18 21:00:00 TS -21.4004 40.0418 main 342 342 _____P________ SH231998 -1 -21.4004 40.0418 2 1004 14 318
1998032S18036 1998 10 SI MM BELTANE 1998-02-19 00:00:00 TS -20.9000 39.5000 1005 reunion main 402 352 _____O________ -1 -20.9000 39.5000 6 1005 9.90000 12 317
1998032S18036 1998 10 SI MM BELTANE 1998-02-19 03:00:00 TS -20.5123 39.1480 main 343 306 _____P________ -1 -20.5123 39.1480 6 1005 9 321
1998032S18036 1998 10 SI MM BELTANE 1998-02-19 06:00:00 TS -20.2000 38.9000 1005 reunion main 306 276 _____O________ -1 -20.2000 38.9000 6 1005 9.90000 7 322
1998032S18036 1998 10 SI MM BELTANE 1998-02-19 09:00:00 TS -19.9499 38.6853 main 268 237 _____P________ -1 -19.9499 38.6853 6 1005 6 323
1998032S18036 1998 10 SI MM BELTANE 1998-02-19 12:00:00 TS -19.7000 38.5000 1005 reunion main 237 199 _____O________ -1 -19.7000 38.5000 6 1005 9.90000 7 329
1998032S18036 1998 10 SI MM BELTANE 1998-02-19 15:00:00 TS -19.3575 38.3000 main 199 153 _____P________ -1 -19.3575 38.3000 6 1005 8 332
1998032S18036 1998 10 SI MM BELTANE 1998-02-19 18:00:00 TS -19.0000 38.1000 1006 reunion main 153 116 _____O________ -1 -19.0000 38.1000 6 1006 9.90000 8 330
1998032S18036 1998 10 SI MM BELTANE 1998-02-19 21:00:00 TS -18.6850 37.8925 main 116 81 _____P________ -1 -18.6850 37.8925 6 1006 7 328
1998032S18036 1998 10 SI MM BELTANE 1998-02-20 00:00:00 TS -18.4000 37.7000 1006 reunion main 81 52 _____O________ -1 -18.4000 37.7000 6 1006 9.90000 7 328
1998032S18036 1998 10 SI MM BELTANE 1998-02-20 03:00:00 TS -18.1050 37.5125 main 52 30 _____P________ -1 -18.1050 37.5125 6 1006 6 330
1998032S18036 1998 10 SI MM BELTANE 1998-02-20 06:00:00 TS -17.9000 37.4000 1006 reunion main 30 30 _____O________ -1 -17.9000 37.4000 6 1006 9.90000 3 339
1998032S18036 1998 10 SI MM BELTANE 1998-02-20 09:00:00 TS -17.8525 37.4125 main 30 30 _____P________ -1 -17.8525 37.4125 6 1006 1 90
1998032S18036 1998 10 SI MM BELTANE 1998-02-20 12:00:00 TS -17.9000 37.5000 1006 reunion main 35 _____O________ -1 -17.9000 37.5000 6 1006 9.90000 2 122

About IBTrACS Database

This database is a web-friendly format of International Best Track Archive for Climate Stewardship (IBTrACS), a global best track data archive curated by NOAA dating back to 1842.

Updated: 2021-10-21